Cmb Charlotte — VRHT9 — position and weather

sailwx.info

Track history (hours):
 
Tides and Currents Weather Stations Pressure Air Temp Water Temp Dewpoint Dewpoint Depression Visibility Wind Speed Wind Dir Waves Ship Positions

Cmb Charlotte

Last reported at 2018-May-14 16:44 UTC. Time now 2018-Jun-23 10:21 UTC.
Position N 37°43' E 121°04'.
Warning: this ship's position is 39 days out of date.

Length 180 m; draft 6.2 m.

Type: Cargo ship. MMSI: 477892200.

Date/timePositionNaut miles runAvg speedWind from/ knotsBaromVisibWave heightAir tempDewpointWater temp
2018-May-14 16:44N 37°43' E 121°04'0 0.0
2018-May-14 16:29N 37°43' E 121°04'1 2.4
2018-May-14 15:58N 37°43' E 121°05'4 7.6
2018-May-14 15:29N 37°45' E 121°09'3 6.8
2018-May-14 15:00N 37°47' E 121°13'1 1.8
2018-May-14 14:30N 37°47' E 121°14'2 4.8
2018-May-14 14:00N 37°48' E 121°17'1 2.2
2018-May-14 13:26N 37°48' E 121°18'0 0.1
2018-May-14 12:59N 37°48' E 121°18'0 0.1
2018-May-14 12:29N 37°48' E 121°18'0 0.0
2018-May-14 11:53N 37°48' E 121°18'0 0.0
2018-May-14 11:29N 37°48' E 121°18'0 0.0
2018-May-14 10:56N 37°48' E 121°18'0 0.0
2018-May-14 10:29N 37°48' E 121°18'0 0.0
2018-May-14 09:59N 37°48' E 121°18'0 0.0
2018-May-14 09:26N 37°48' E 121°18'0 0.1
2018-May-14 08:56N 37°48' E 121°18'0 0.0
2018-May-14 08:26N 37°48' E 121°18'0 0.0
2018-May-14 07:59N 37°48' E 121°18'0 0.1
2018-May-14 07:29N 37°48' E 121°18'0 0.1
2018-May-14 06:56N 37°48' E 121°18'0 0.0
2018-May-14 06:14N 37°48' E 121°18'0 0.0
2018-May-14 05:56N 37°48' E 121°18'0 0.0
2018-May-14 05:29N 37°48' E 121°18'0 0.1
2018-May-14 04:59N 37°48' E 121°18'0 0.0
2018-May-14 04:29N 37°48' E 121°18'0 0.1
2018-May-14 03:59N 37°48' E 121°18'0 0.0
2018-May-14 03:29N 37°48' E 121°18'0 0.1
2018-May-14 02:59N 37°48' E 121°18'0 0.0
2018-May-14 02:29N 37°48' E 121°18'0 0.2
2018-May-14 01:53N 37°48' E 121°18'0 0.1
2018-May-14 01:29N 37°48' E 121°18'0 0.0
2018-May-14 00:53N 37°48' E 121°18'0 0.1
2018-May-14 00:26N 37°48' E 121°18'0 0.1
2018-May-13 23:59N 37°48' E 121°18'0 0.1
2018-May-13 23:29N 37°48' E 121°18'0 0.1
2018-May-13 22:59N 37°48' E 121°18'0 0.0
2018-May-13 22:29N 37°48' E 121°18'0 0.0
2018-May-13 21:59N 37°48' E 121°18'0 0.0
2018-May-13 21:26N 37°48' E 121°18'0 0.0
2018-May-13 20:59N 37°48' E 121°18'0 0.0
2018-May-13 20:29N 37°48' E 121°18'0 0.1
2018-May-13 19:59N 37°48' E 121°18'0 0.1
2018-May-13 19:29N 37°48' E 121°18'0 0.1
2018-May-13 18:59N 37°48' E 121°18'0 0.1
2018-May-13 18:29N 37°48' E 121°18'0 0.1
2018-May-13 17:59N 37°48' E 121°18'0 0.0
2018-May-13 17:29N 37°48' E 121°18'0 0.0
2018-May-13 15:59N 37°48' E 121°18'0 0.0
2018-May-13 15:26N 37°48' E 121°18'0 0.0
2018-May-13 14:59N 37°48' E 121°18'0 0.0
2018-May-13 14:26N 37°48' E 121°18'0 0.0
2018-May-13 13:56N 37°48' E 121°18'0 0.0
2018-May-13 13:26N 37°48' E 121°18'0 0.0
2018-May-13 12:53N 37°48' E 121°18'0 0.0
2018-May-13 12:20N 37°48' E 121°18'0 0.1
2018-May-13 10:44N 37°48' E 121°18'0 0.0
2018-May-13 09:56N 37°48' E 121°18'0 0.0
2018-May-13 09:26N 37°48' E 121°18'0 0.0
2018-May-13 08:56N 37°48' E 121°18'0 0.0
2018-May-13 08:29N 37°48' E 121°18'0 0.0
2018-May-13 06:26N 37°48' E 121°18'0 0.3
2018-May-13 06:00N 37°48' E 121°18'2 4.8
2018-May-13 05:30N 37°51' E 121°19'612.2
2018-May-13 05:00N 37°53' E 121°26'612.2
2018-May-13 04:29N 37°54' E 121°34'612.3
2018-May-13 04:00N 37°55' E 121°42'712.1
2018-May-13 03:25N 37°55' E 121°51'41510.9
2018-May-11 13:19N 31°01' E 122°24'412.5
2018-May-11 13:00N 31°02' E 122°20'611.4
2018-May-11 12:29N 31°03' E 122°13'5 9.4
2018-May-11 12:00N 31°03' E 122°08'612.0
2018-May-11 11:30N 31°05' E 122°01'4 8.5
2018-May-11 11:00N 31°07' E 121°57'712.2
2018-May-11 10:26N 31°11' E 121°50'2211.7
2018-May-11 08:34N 31°25' E 121°31'111.4
2018-May-11 08:30N 31°26' E 121°30'3 6.6
2018-May-11 08:00N 31°28' E 121°27'612.0
2018-May-11 07:30N 31°32' E 121°22'713.2
2018-May-11 07:00N 31°37' E 121°16'813.7
2018-May-11 06:27N 31°41' E 121°10'  
Track history (hours):
 
Tides and Currents Weather Stations Pressure Air Temp Water Temp Dewpoint Dewpoint Depression Visibility Wind Speed Wind Dir Waves Ship Positions

Cmb Charlotte

Last reported at 2018-May-14 16:44 UTC. Time now 2018-Jun-23 10:21 UTC.
Position N 37°43' E 121°04'.
Warning: this ship's position is 39 days out of date.

Length 180 m; draft 6.2 m.

Type: Cargo ship. MMSI: 477892200.

Date/timePositionNaut miles runAvg speedWind from/ knotsBaromVisibWave heightAir tempDewpointWater temp
2018-May-14 16:44N 37°43' E 121°04'0 0.0
2018-May-14 16:29N 37°43' E 121°04'1 2.4
2018-May-14 15:58N 37°43' E 121°05'4 7.6
2018-May-14 15:29N 37°45' E 121°09'3 6.8
2018-May-14 15:00N 37°47' E 121°13'1 1.8
2018-May-14 14:30N 37°47' E 121°14'2 4.8
2018-May-14 14:00N 37°48' E 121°17'1 2.2
2018-May-14 13:26N 37°48' E 121°18'0 0.1
2018-May-14 12:59N 37°48' E 121°18'0 0.1
2018-May-14 12:29N 37°48' E 121°18'0 0.0
2018-May-14 11:53N 37°48' E 121°18'0 0.0
2018-May-14 11:29N 37°48' E 121°18'0 0.0
2018-May-14 10:56N 37°48' E 121°18'0 0.0
2018-May-14 10:29N 37°48' E 121°18'0 0.0
2018-May-14 09:59N 37°48' E 121°18'0 0.0
2018-May-14 09:26N 37°48' E 121°18'0 0.1
2018-May-14 08:56N 37°48' E 121°18'0 0.0
2018-May-14 08:26N 37°48' E 121°18'0 0.0
2018-May-14 07:59N 37°48' E 121°18'0 0.1
2018-May-14 07:29N 37°48' E 121°18'0 0.1
2018-May-14 06:56N 37°48' E 121°18'0 0.0
2018-May-14 06:14N 37°48' E 121°18'0 0.0
2018-May-14 05:56N 37°48' E 121°18'0 0.0
2018-May-14 05:29N 37°48' E 121°18'0 0.1
2018-May-14 04:59N 37°48' E 121°18'0 0.0
2018-May-14 04:29N 37°48' E 121°18'0 0.1
2018-May-14 03:59N 37°48' E 121°18'0 0.0
2018-May-14 03:29N 37°48' E 121°18'0 0.1
2018-May-14 02:59N 37°48' E 121°18'0 0.0
2018-May-14 02:29N 37°48' E 121°18'0 0.2
2018-May-14 01:53N 37°48' E 121°18'0 0.1
2018-May-14 01:29N 37°48' E 121°18'0 0.0
2018-May-14 00:53N 37°48' E 121°18'0 0.1
2018-May-14 00:26N 37°48' E 121°18'0 0.1
2018-May-13 23:59N 37°48' E 121°18'0 0.1
2018-May-13 23:29N 37°48' E 121°18'0 0.1
2018-May-13 22:59N 37°48' E 121°18'0 0.0
2018-May-13 22:29N 37°48' E 121°18'0 0.0
2018-May-13 21:59N 37°48' E 121°18'0 0.0
2018-May-13 21:26N 37°48' E 121°18'0 0.0
2018-May-13 20:59N 37°48' E 121°18'0 0.0
2018-May-13 20:29N 37°48' E 121°18'0 0.1
2018-May-13 19:59N 37°48' E 121°18'0 0.1
2018-May-13 19:29N 37°48' E 121°18'0 0.1
2018-May-13 18:59N 37°48' E 121°18'0 0.1
2018-May-13 18:29N 37°48' E 121°18'0 0.1
2018-May-13 17:59N 37°48' E 121°18'0 0.0
2018-May-13 17:29N 37°48' E 121°18'0 0.0
2018-May-13 15:59N 37°48' E 121°18'0 0.0
2018-May-13 15:26N 37°48' E 121°18'0 0.0
2018-May-13 14:59N 37°48' E 121°18'0 0.0
2018-May-13 14:26N 37°48' E 121°18'0 0.0
2018-May-13 13:56N 37°48' E 121°18'0 0.0
2018-May-13 13:26N 37°48' E 121°18'0 0.0
2018-May-13 12:53N 37°48' E 121°18'0 0.0
2018-May-13 12:20N 37°48' E 121°18'0 0.1
2018-May-13 10:44N 37°48' E 121°18'0 0.0
2018-May-13 09:56N 37°48' E 121°18'0 0.0
2018-May-13 09:26N 37°48' E 121°18'0 0.0
2018-May-13 08:56N 37°48' E 121°18'0 0.0
2018-May-13 08:29N 37°48' E 121°18'0 0.0
2018-May-13 06:26N 37°48' E 121°18'0 0.3
2018-May-13 06:00N 37°48' E 121°18'2 4.8
2018-May-13 05:30N 37°51' E 121°19'612.2
2018-May-13 05:00N 37°53' E 121°26'612.2
2018-May-13 04:29N 37°54' E 121°34'612.3
2018-May-13 04:00N 37°55' E 121°42'712.1
2018-May-13 03:25N 37°55' E 121°51'41510.9
2018-May-11 13:19N 31°01' E 122°24'412.5
2018-May-11 13:00N 31°02' E 122°20'611.4
2018-May-11 12:29N 31°03' E 122°13'5 9.4
2018-May-11 12:00N 31°03' E 122°08'612.0
2018-May-11 11:30N 31°05' E 122°01'4 8.5
2018-May-11 11:00N 31°07' E 121°57'712.2
2018-May-11 10:26N 31°11' E 121°50'2211.7
2018-May-11 08:34N 31°25' E 121°31'111.4
2018-May-11 08:30N 31°26' E 121°30'3 6.6
2018-May-11 08:00N 31°28' E 121°27'612.0
2018-May-11 07:30N 31°32' E 121°22'713.2
2018-May-11 07:00N 31°37' E 121°16'813.7
2018-May-11 06:27N 31°41' E 121°10'  

Dump ship's entire track history